createdAt,value
2017-11-13T06:42:38.832Z,5
2017-11-13T06:44:01.012Z,5
2017-11-13T06:45:23.516Z,5
2017-11-13T06:46:45.673Z,10
2017-11-13T06:48:07.536Z,10
2017-11-13T06:49:30.050Z,10
2017-11-13T06:50:51.606Z,10
2017-11-13T06:52:13.496Z,10
2017-11-13T06:53:35.331Z,15
2017-11-13T06:54:57.501Z,15
2017-11-13T06:56:19.022Z,15
2017-11-13T06:57:40.865Z,15
2017-11-13T06:59:03.041Z,20
2017-11-13T07:00:25.031Z,20
2017-11-13T07:01:47.304Z,20
2017-11-13T07:03:08.846Z,20
2017-11-13T07:04:30.355Z,25
2017-11-13T07:05:52.228Z,25
2017-11-13T07:07:14.464Z,25
2017-11-13T07:08:36.340Z,30
2017-11-13T07:09:57.856Z,30
2017-11-13T07:11:19.697Z,30
2017-11-13T07:12:41.215Z,30
2017-11-13T07:14:02.844Z,35
2017-11-13T07:15:24.806Z,35
2017-11-13T07:16:46.346Z,35
2017-11-13T07:18:08.217Z,35
2017-11-13T07:19:29.980Z,40
2017-11-13T07:20:52.896Z,40
2017-11-13T07:22:15.420Z,40
2017-11-13T07:23:37.914Z,45
2017-11-13T07:25:00.466Z,45
2017-11-13T07:26:22.661Z,45
2017-11-13T07:27:44.570Z,45
2017-11-13T07:29:07.136Z,50
2017-11-13T07:30:29.349Z,50
2017-11-13T07:31:52.104Z,50
2017-11-13T07:33:13.957Z,50
2017-11-13T07:34:35.793Z,55
2017-11-13T07:35:58.053Z,55
2017-11-13T07:37:19.656Z,55
2017-11-13T07:38:41.528Z,55
2017-11-13T07:40:04.200Z,55
2017-11-13T07:41:26.387Z,60
2017-11-13T07:42:48.206Z,60
2017-11-13T07:44:10.404Z,60
2017-11-13T07:45:31.936Z,60
2017-11-13T07:46:54.122Z,65
2017-11-13T07:48:16.746Z,65
2017-11-13T07:49:37.633Z,65
2017-11-13T07:50:59.830Z,65
2017-11-13T07:52:21.686Z,65
2017-11-13T07:53:43.999Z,70
2017-11-13T07:55:05.907Z,70
2017-11-13T07:56:28.128Z,70
2017-11-13T07:57:49.986Z,70
2017-11-13T07:59:11.516Z,70
2017-11-13T08:00:34.048Z,70
2017-11-13T08:01:56.317Z,75
2017-11-13T08:03:18.506Z,75
2017-11-13T08:04:40.509Z,75
2017-11-13T08:06:02.087Z,75
2017-11-13T08:07:24.667Z,75
2017-11-13T08:08:46.556Z,80
2017-11-13T08:10:09.072Z,80
2017-11-13T08:11:31.612Z,80
2017-11-13T08:12:53.797Z,80
2017-11-13T08:14:15.342Z,80
2017-11-13T08:15:37.556Z,80
2017-11-13T08:16:59.776Z,80
2017-11-13T08:18:22.302Z,85
2017-11-13T08:19:44.834Z,85
2017-11-13T08:21:06.702Z,85
2017-11-13T08:22:28.937Z,85
2017-11-13T08:23:51.117Z,85
2017-11-13T08:25:13.723Z,85
2017-11-13T08:26:36.281Z,85
2017-11-13T08:27:58.844Z,85
2017-11-13T08:29:20.753Z,90
2017-11-13T08:30:43.044Z,90
2017-11-13T08:32:34.357Z,90
2017-11-13T08:33:56.885Z,90
2017-11-13T08:35:18.079Z,90
2017-11-13T08:36:39.997Z,90
2017-11-13T08:38:02.226Z,90
2017-11-13T08:39:24.772Z,95
2017-11-13T08:40:46.637Z,95
2017-11-13T08:42:08.531Z,95
2017-11-13T08:43:30.023Z,95
2017-11-13T08:44:51.880Z,95
2017-11-13T08:46:14.087Z,95
2017-11-13T08:47:36.326Z,95
2017-11-13T08:48:57.537Z,95
2017-11-13T08:50:19.444Z,95
2017-11-13T08:51:41.961Z,95
2017-11-13T08:53:04.146Z,100
2017-11-13T08:54:26.321Z,100
2017-11-13T08:55:48.544Z,100
2017-11-13T08:57:10.059Z,100
2017-11-13T08:58:32.328Z,100
2017-11-13T08:59:54.565Z,100
2017-11-13T09:01:16.431Z,100
2017-11-13T09:02:38.945Z,100
2017-11-13T09:04:00.486Z,100
2017-11-13T09:05:22.672Z,100
2017-11-13T09:06:44.873Z,100
2017-11-13T09:08:07.083Z,105
2017-11-13T09:09:29.325Z,105
2017-11-13T09:10:51.239Z,100
2017-11-13T09:12:13.830Z,105
2017-11-13T09:13:35.687Z,105
2017-11-13T09:14:57.912Z,100
2017-11-13T09:16:20.123Z,100
2017-11-13T09:17:42.322Z,100
2017-11-13T09:19:04.912Z,100
2017-11-13T09:20:26.480Z,100
2017-11-13T09:21:48.658Z,105
2017-11-13T09:23:10.227Z,105
2017-11-13T09:24:31.763Z,105
2017-11-13T09:25:53.290Z,105
2017-11-13T09:27:15.139Z,105
2017-11-13T09:28:36.985Z,105
2017-11-13T09:29:58.877Z,105
2017-11-13T09:31:20.401Z,105
2017-11-13T09:32:41.925Z,105
2017-11-13T09:34:03.534Z,105
2017-11-13T09:35:25.709Z,105
2017-11-13T09:36:47.634Z,105
2017-11-13T09:38:10.245Z,105
2017-11-13T09:39:31.745Z,105
2017-11-13T09:40:53.940Z,105
2017-11-13T09:42:15.438Z,105
2017-11-13T09:43:37.299Z,105
2017-11-13T09:44:59.905Z,105
2017-11-13T09:46:21.414Z,105
2017-11-13T09:47:43.623Z,105
2017-11-13T09:49:05.724Z,105
2017-11-13T09:50:27.904Z,110
2017-11-13T09:51:49.750Z,110
2017-11-13T09:53:12.027Z,110
2017-11-13T09:54:34.567Z,110
2017-11-13T09:55:56.083Z,110
2017-11-13T09:57:17.942Z,110
2017-11-13T09:58:40.132Z,110
2017-11-13T10:00:02.434Z,110
2017-11-13T10:01:24.274Z,110
2017-11-13T10:02:45.793Z,110
2017-11-13T10:04:07.986Z,110
2017-11-13T10:05:30.565Z,110
2017-11-13T10:06:52.446Z,110
2017-11-13T10:08:14.640Z,110
2017-11-13T10:09:36.483Z,110
2017-11-13T10:10:58.341Z,110
2017-11-13T10:12:20.563Z,110
2017-11-13T10:13:43.103Z,115
2017-11-13T10:15:05.297Z,115
2017-11-13T10:16:27.481Z,115
2017-11-13T10:17:50.021Z,115
2017-11-13T10:19:12.218Z,110
2017-11-13T10:20:34.398Z,110
2017-11-13T10:21:56.496Z,110
2017-11-13T10:23:19.127Z,110
2017-11-13T10:24:41.316Z,110
2017-11-13T10:26:03.509Z,110
2017-11-13T10:27:25.364Z,110
2017-11-13T10:28:47.704Z,115
2017-11-13T10:30:09.893Z,115
2017-11-13T10:31:31.413Z,115
2017-11-13T10:32:53.606Z,115
2017-11-13T10:34:15.449Z,115
2017-11-13T10:35:37.994Z,115
2017-11-13T10:37:00.524Z,115
2017-11-13T10:38:23.062Z,115
2017-11-13T10:39:44.573Z,115
2017-11-13T10:41:06.152Z,115
2017-11-13T10:42:28.683Z,115
2017-11-13T10:43:50.524Z,115
2017-11-13T10:45:12.696Z,115
2017-11-13T10:46:35.245Z,115
2017-11-13T10:47:57.093Z,115
2017-11-13T10:49:19.607Z,115
2017-11-13T10:50:41.905Z,115
2017-11-13T10:52:04.464Z,115
2017-11-13T10:53:26.302Z,115
2017-11-13T10:54:48.183Z,115
2017-11-13T10:56:09.741Z,115
2017-11-13T10:57:31.732Z,115
2017-11-13T10:58:53.336Z,115
2017-11-13T11:00:15.564Z,115
2017-11-13T11:01:37.495Z,115
2017-11-13T11:02:59.701Z,115
2017-11-13T11:04:21.593Z,115
2017-11-13T11:05:43.809Z,115
2017-11-13T11:07:06.033Z,115
2017-11-13T11:08:27.676Z,115
2017-11-13T11:09:49.923Z,115
2017-11-13T11:11:12.483Z,115
2017-11-13T11:12:34.675Z,115
2017-11-13T11:13:56.858Z,115
2017-11-13T11:15:19.226Z,115
2017-11-13T11:16:41.402Z,115
2017-11-13T11:18:03.605Z,115
2017-11-13T11:19:25.537Z,115
2017-11-13T11:20:47.713Z,115
2017-11-13T11:22:10.214Z,115
2017-11-13T11:23:32.085Z,115
2017-11-13T11:24:53.605Z,115
2017-11-13T11:26:15.039Z,115
2017-11-13T11:27:36.896Z,115
2017-11-13T11:28:58.874Z,115
2017-11-13T11:30:20.162Z,115
2017-11-13T11:31:42.013Z,115
2017-11-13T11:33:03.984Z,115
2017-11-13T11:34:25.854Z,115
2017-11-13T11:35:48.073Z,115
2017-11-13T11:37:09.970Z,115
2017-11-13T11:38:31.402Z,115
2017-11-13T11:39:53.717Z,115
2017-11-13T11:41:15.913Z,115
2017-11-13T11:42:37.466Z,115
2017-11-13T11:43:58.986Z,115
2017-11-13T11:45:21.176Z,115
2017-11-13T11:46:42.722Z,115
2017-11-13T11:48:05.059Z,115
2017-11-13T11:49:27.266Z,115
2017-11-13T11:50:49.456Z,115
2017-11-13T11:52:11.974Z,115
2017-11-13T11:53:34.181Z,115
2017-11-13T11:54:56.373Z,115
2017-11-13T11:56:18.581Z,115
2017-11-13T11:57:40.467Z,115
2017-11-13T11:59:03.025Z,115
2017-11-13T12:00:25.346Z,120
2017-11-13T12:01:47.692Z,120
2017-11-13T12:03:09.566Z,120
2017-11-13T12:04:31.375Z,115
2017-11-13T12:05:53.539Z,115
2017-11-13T12:07:16.080Z,115
2017-11-13T12:08:37.329Z,115
2017-11-13T12:09:59.513Z,115
2017-11-13T12:11:21.404Z,115
2017-11-13T12:12:43.925Z,115
2017-11-13T12:14:06.216Z,115
2017-11-13T12:15:28.756Z,115
2017-11-13T12:16:50.665Z,115
2017-11-13T12:18:13.255Z,115
2017-11-13T12:19:35.432Z,115
2017-11-13T12:20:57.626Z,115
2017-11-13T12:22:19.729Z,110
2017-11-13T12:23:41.603Z,115
2017-11-13T12:25:03.444Z,115
2017-11-13T12:26:26.076Z,115
2017-11-13T12:27:47.954Z,115
2017-11-13T12:29:10.163Z,110
2017-11-13T12:30:32.364Z,105
2017-11-13T12:31:54.543Z,110
2017-11-13T12:33:16.442Z,110
2017-11-13T12:34:38.315Z,110
2017-11-13T12:36:00.254Z,110
2017-11-13T12:37:22.112Z,110
2017-11-13T12:38:44.435Z,100
2017-11-13T12:40:06.018Z,110
2017-11-13T12:41:27.910Z,110
2017-11-13T12:42:50.113Z,110
2017-11-13T12:44:12.669Z,110
2017-11-13T12:45:34.675Z,100
2017-11-13T12:46:56.894Z,110
2017-11-13T12:48:18.081Z,110
2017-11-13T12:49:39.961Z,110
2017-11-13T12:51:01.805Z,105
2017-11-13T12:52:23.333Z,110
2017-11-13T12:53:45.553Z,110
2017-11-13T12:55:07.512Z,110
2017-11-13T12:56:29.736Z,110
2017-11-13T12:57:52.424Z,110
2017-11-13T12:59:15.006Z,105
2017-11-13T13:00:37.264Z,105
2017-11-13T13:01:59.454Z,110
2017-11-13T13:03:20.617Z,115
2017-11-13T13:04:42.815Z,115
2017-11-13T13:06:04.705Z,120
2017-11-13T13:07:26.544Z,120
2017-11-13T13:08:48.443Z,115
2017-11-13T13:10:10.293Z,115
2017-11-13T13:11:32.301Z,115
2017-11-13T13:12:54.515Z,115
2017-11-13T13:14:16.686Z,125
2017-11-13T13:15:38.538Z,130
2017-11-13T13:17:01.064Z,130
2017-11-13T13:18:23.527Z,125
2017-11-13T13:19:45.749Z,125
2017-11-13T13:21:08.277Z,135
2017-11-13T13:22:30.814Z,135
2017-11-13T13:23:53.365Z,130
2017-11-13T13:25:15.645Z,115
2017-11-13T13:26:37.498Z,115
2017-11-13T13:27:59.416Z,110
2017-11-13T13:29:21.321Z,115
2017-11-13T13:30:43.560Z,115
2017-11-13T13:32:05.761Z,115
2017-11-13T13:33:28.315Z,115
2017-11-13T13:34:50.255Z,110
2017-11-13T13:36:12.145Z,105
2017-11-13T13:37:34.017Z,105
2017-11-13T13:38:56.602Z,105
2017-11-13T13:40:18.827Z,110
2017-11-13T13:41:41.041Z,110
2017-11-13T13:43:02.995Z,110
2017-11-13T13:44:25.212Z,110
2017-11-13T13:45:47.424Z,105
2017-11-13T13:47:09.995Z,105
2017-11-13T13:48:32.516Z,105
2017-11-13T13:50:08.955Z,105
2017-11-13T13:51:31.142Z,105
2017-11-13T13:52:53.334Z,110
2017-11-13T13:54:15.193Z,110
2017-11-13T13:55:37.737Z,110
2017-11-13T13:56:59.258Z,105
2017-11-13T13:58:21.817Z,100
2017-11-13T13:59:43.998Z,95
2017-11-13T14:01:06.562Z,95
2017-11-13T14:02:28.447Z,95
2017-11-13T14:03:50.692Z,90
2017-11-13T14:05:13.370Z,90
2017-11-13T14:06:35.911Z,90
2017-11-13T14:07:58.146Z,95
2017-11-13T14:09:20.379Z,95
2017-11-13T14:10:42.251Z,95
2017-11-13T14:12:04.134Z,95
2017-11-13T14:13:26.691Z,95
2017-11-13T14:14:48.637Z,95
2017-11-13T14:16:10.553Z,90
2017-11-13T14:17:32.079Z,85
2017-11-13T14:18:54.632Z,80
2017-11-13T14:20:16.268Z,75
2017-11-13T14:21:38.476Z,75
2017-11-13T14:23:00.641Z,75
2017-11-13T14:24:23.256Z,75
2017-11-13T14:25:45.764Z,70
2017-11-13T14:27:07.316Z,70
2017-11-13T14:28:29.881Z,70
2017-11-13T14:29:52.411Z,70
2017-11-13T14:31:14.956Z,70
2017-11-13T14:32:36.845Z,65
2017-11-13T14:33:58.163Z,65
2017-11-13T14:35:20.138Z,65
2017-11-13T14:36:42.342Z,65
2017-11-13T14:38:04.548Z,60
2017-11-13T14:39:26.065Z,60
2017-11-13T14:40:48.294Z,55
2017-11-13T14:42:10.158Z,55
2017-11-13T14:43:32.358Z,55
2017-11-13T14:44:54.912Z,55
2017-11-13T14:46:17.127Z,50
2017-11-13T14:47:39.475Z,50
2017-11-13T14:49:01.829Z,50
2017-11-13T14:50:24.384Z,50
2017-11-13T14:51:46.587Z,45
2017-11-13T14:53:09.131Z,45
2017-11-13T14:54:31.017Z,45
2017-11-13T14:55:53.241Z,40
2017-11-13T14:57:15.838Z,40
2017-11-13T14:58:38.431Z,40
2017-11-13T15:00:01.140Z,35
2017-11-13T15:01:23.367Z,35
2017-11-13T15:02:45.568Z,35
2017-11-13T15:04:07.882Z,30
2017-11-13T15:05:30.122Z,30
2017-11-13T15:06:52.315Z,30
2017-11-13T15:08:13.868Z,25
2017-11-13T15:09:36.435Z,25
2017-11-13T15:10:58.011Z,25
2017-11-13T15:12:20.212Z,25
2017-11-13T15:13:42.755Z,20
2017-11-13T15:15:05.285Z,20
2017-11-13T15:16:27.572Z,20
2017-11-13T15:17:49.122Z,20
2017-11-13T15:19:11.737Z,15
2017-11-13T15:20:34.323Z,15
2017-11-13T15:21:56.196Z,15
2017-11-13T15:23:18.906Z,10
2017-11-13T15:24:41.465Z,10
2017-11-13T15:26:03.418Z,10
2017-11-13T15:27:25.967Z,10
2017-11-13T15:28:48.576Z,5
2017-11-13T15:30:10.500Z,5
2017-11-13T15:31:32.707Z,5
2017-11-13T15:32:54.896Z,5
2017-11-13T15:34:17.097Z,5
2017-11-13T15:35:38.356Z,5
2017-11-13T15:37:00.886Z,0
2017-11-13T15:38:23.427Z,0
2017-11-13T15:39:46.125Z,0
2017-11-13T15:41:08.335Z,0
2017-11-13T15:42:30.309Z,0
2017-11-13T15:43:52.521Z,0
2017-11-13T15:45:14.729Z,0
2017-11-13T15:46:37.246Z,0
2017-11-13T15:47:59.796Z,0
2017-11-13T15:49:22.015Z,0
2017-11-13T15:50:44.561Z,0
2017-11-13T15:52:07.075Z,0
2017-11-13T15:53:28.959Z,0
2017-11-13T15:54:50.823Z,0
2017-11-13T15:56:13.414Z,0
2017-11-13T15:57:35.285Z,0
2017-11-13T15:58:57.933Z,0
2017-11-13T16:00:20.485Z,0
2017-11-13T16:01:41.679Z,0
2017-11-13T16:03:03.604Z,0
2017-11-13T16:04:25.827Z,0
2017-11-13T16:05:48.049Z,0
2017-11-13T16:07:10.657Z,0
2017-11-13T16:08:33.205Z,0
2017-11-13T16:09:55.435Z,0
2017-11-13T16:11:17.400Z,0
2017-11-13T16:12:39.608Z,0
2017-11-13T16:14:01.488Z,0
2017-11-13T16:15:23.343Z,0
2017-11-13T16:16:45.875Z,0
2017-11-13T16:18:07.116Z,0
2017-11-13T16:19:29.669Z,0
2017-11-13T16:20:52.175Z,0
2017-11-13T16:22:14.710Z,0
2017-11-13T16:23:36.606Z,0
2017-11-13T16:24:59.300Z,0
2017-11-13T16:26:21.125Z,0
2017-11-13T16:27:43.302Z,0
2017-11-13T16:29:05.615Z,0
2017-11-13T16:30:28.241Z,0
2017-11-13T16:31:50.775Z,0
2017-11-13T16:33:12.978Z,0
2017-11-13T16:34:35.192Z,0
2017-11-13T16:35:57.835Z,0
2017-11-13T16:37:20.039Z,0
2017-11-13T16:38:41.996Z,0
2017-11-13T16:40:04.226Z,0
2017-11-13T16:41:26.433Z,0
2017-11-13T16:42:48.327Z,0
2017-11-13T16:44:10.554Z,0
2017-11-13T16:45:33.105Z,0
2017-11-13T16:46:54.987Z,0
2017-11-13T16:48:17.536Z,0
2017-11-13T16:49:39.746Z,0
2017-11-13T16:51:01.935Z,0
2017-11-13T16:52:24.284Z,0
2017-11-13T16:53:46.570Z,0
2017-11-13T16:55:08.799Z,0
2017-11-13T16:56:30.990Z,0
2017-11-13T16:57:53.636Z,0
2017-11-13T16:59:15.878Z,0
2017-11-13T17:00:38.419Z,0
2017-11-13T17:02:00.966Z,0
2017-11-13T17:03:22.865Z,0
2017-11-13T17:04:45.454Z,0
2017-11-13T17:06:07.665Z,0
2017-11-13T17:07:29.515Z,0
2017-11-13T17:08:52.027Z,0
2017-11-13T17:10:14.636Z,0
2017-11-13T17:11:36.515Z,0
2017-11-13T17:12:59.093Z,0
2017-11-13T17:14:21.095Z,0
2017-11-13T17:15:43.016Z,0
2017-11-13T17:17:05.231Z,0
2017-11-13T17:18:27.428Z,0
2017-11-13T17:19:49.768Z,0
2017-11-13T17:21:11.967Z,0
2017-11-13T17:22:34.519Z,0
2017-11-13T17:23:55.835Z,0
2017-11-13T17:25:18.407Z,0
2017-11-13T17:26:40.640Z,0
2017-11-13T17:28:03.195Z,0
2017-11-13T17:29:26.161Z,0
2017-11-13T17:30:48.743Z,0
2017-11-13T17:32:11.296Z,0
2017-11-13T17:33:33.506Z,0
2017-11-13T17:34:56.049Z,0
2017-11-13T17:36:18.723Z,0
2017-11-13T17:37:40.920Z,0
2017-11-13T17:39:03.208Z,0
2017-11-13T17:40:25.785Z,0
2017-11-13T17:41:48.005Z,0
2017-11-13T17:43:09.880Z,0
2017-11-13T17:44:32.191Z,0
2017-11-13T17:45:54.058Z,0
2017-11-13T17:47:16.607Z,0
2017-11-13T17:48:38.458Z,0
2017-11-13T17:50:00.738Z,0
2017-11-13T17:51:22.626Z,0
2017-11-13T17:52:45.335Z,0
2017-11-13T17:54:07.512Z,0
2017-11-13T17:55:29.824Z,0
2017-11-13T17:56:52.054Z,0
2017-11-13T17:58:13.927Z,0
2017-11-13T17:59:36.097Z,0
2017-11-13T18:00:58.788Z,0
2017-11-13T18:02:21.104Z,0
2017-11-13T18:03:43.318Z,0
2017-11-13T18:05:05.547Z,0
2017-11-13T18:06:27.451Z,0
2017-11-13T18:07:49.300Z,0
2017-11-13T18:09:11.507Z,0
2017-11-13T18:10:34.111Z,0
2017-11-13T18:11:56.649Z,0
2017-11-13T18:13:18.864Z,0
2017-11-13T18:14:41.131Z,0
2017-11-13T18:16:03.352Z,0
2017-11-13T18:17:25.226Z,0
2017-11-13T18:18:47.868Z,0
2017-11-13T18:20:10.409Z,0
2017-11-13T18:21:33.961Z,0
2017-11-13T18:22:56.892Z,0
2017-11-13T18:24:19.137Z,0
2017-11-13T18:25:41.357Z,0
2017-11-13T18:27:03.597Z,0
2017-11-13T18:28:25.835Z,0
2017-11-13T18:29:48.372Z,0
2017-11-13T18:31:10.562Z,0
2017-11-13T18:32:32.423Z,0
2017-11-13T18:33:54.305Z,0
2017-11-13T18:35:16.864Z,0
2017-11-13T18:36:39.105Z,0
2017-11-13T18:38:01.659Z,0
2017-11-13T18:39:24.250Z,0
2017-11-13T18:40:46.284Z,0
2017-11-13T18:42:08.868Z,0
2017-11-13T18:43:31.430Z,0
2017-11-13T18:44:53.749Z,0
2017-11-13T18:46:16.290Z,0
2017-11-13T18:47:38.879Z,0
2017-11-13T18:49:01.215Z,0
2017-11-13T18:50:23.539Z,0
2017-11-13T18:51:45.804Z,0
2017-11-13T18:53:08.363Z,0
2017-11-13T18:54:30.615Z,0
2017-11-13T18:55:52.521Z,0
2017-11-13T18:57:15.120Z,0
2017-11-13T18:58:37.675Z,0
2017-11-13T18:59:59.905Z,0
2017-11-13T19:01:22.625Z,0
2017-11-13T19:02:44.872Z,0
2017-11-13T19:04:07.496Z,0
2017-11-13T19:05:30.167Z,0
2017-11-13T19:06:52.725Z,0
2017-11-13T19:08:15.295Z,0
2017-11-13T19:09:37.165Z,0
2017-11-13T19:10:59.396Z,0
2017-11-13T19:12:21.989Z,0
2017-11-13T19:13:44.597Z,0
2017-11-13T19:15:07.148Z,0
2017-11-13T19:16:29.398Z,0
2017-11-13T19:17:51.287Z,0
2017-11-13T19:19:13.483Z,0
2017-11-13T19:20:36.051Z,0
2017-11-13T19:21:58.614Z,0
2017-11-13T19:23:21.388Z,0
2017-11-13T19:24:43.965Z,0
2017-11-13T19:26:06.508Z,0
2017-11-13T19:27:28.741Z,0
2017-11-13T19:28:51.309Z,0
2017-11-13T19:30:13.649Z,0
2017-11-13T19:31:35.872Z,0
2017-11-13T19:32:58.166Z,0
2017-11-13T19:34:20.798Z,0
2017-11-13T19:35:43.375Z,0
2017-11-13T19:37:06.054Z,0
2017-11-13T19:38:27.583Z,0
2017-11-13T19:39:50.139Z,0
2017-11-13T19:41:11.686Z,0
2017-11-13T19:42:33.937Z,0
2017-11-13T19:43:56.516Z,0
2017-11-13T19:45:18.746Z,0
2017-11-13T19:46:40.635Z,0
2017-11-13T19:48:02.876Z,0
2017-11-13T19:49:24.846Z,0
2017-11-13T19:50:47.123Z,0
2017-11-13T19:52:09.715Z,0
